Time;durP1;ratioP1;P1;durP2;ratioP2;P2;SDS_P1;SDS_P2;PMS_P1;PMS_P2;Temp;Humidity;BMP_temperature;BMP_pressure;BME280_temperature;BME280_humidity;BME280_pressure;Samples;Min_cycle;Max_cycle;Signal;HPM_P1;HPM_P2
2021/06/14 00:01:10;;;;;;;8.80;5.65;;;17.80;99.90;;;;;;5074960;28;20504;-88
2021/06/14 00:03:35;;;;;;;11.30;5.90;;;17.60;99.90;;;;;;5075206;28;20025;-88
2021/06/14 00:06:01;;;;;;;8.90;5.88;;;17.60;99.90;;;;;;5076091;28;20024;-88
2021/06/14 00:08:27;;;;;;;10.18;6.25;;;17.40;99.90;;;;;;5076600;28;20024;-88
2021/06/14 00:10:55;;;;;;;9.48;6.25;;;17.40;99.90;;;;;;5074543;28;20036;-88
2021/06/14 00:13:21;;;;;;;10.00;6.65;;;17.50;99.90;;;;;;5074084;28;20114;-88
2021/06/14 00:15:48;;;;;;;11.80;6.82;;;17.50;99.90;;;;;;5074647;28;20020;-88
2021/06/14 00:18:15;;;;;;;10.73;6.60;;;17.60;99.90;;;;;;5074274;28;20020;-88
2021/06/14 00:20:49;;;;;;;9.15;6.80;;;17.50;99.90;;;;;;5074746;28;20031;-88
2021/06/14 00:23:15;;;;;;;12.20;6.95;;;17.30;99.90;;;;;;5074430;28;20058;-88
2021/06/14 00:25:40;;;;;;;13.38;6.95;;;17.30;99.90;;;;;;5074044;28;20128;-88
2021/06/14 00:28:07;;;;;;;12.25;7.13;;;17.30;99.90;;;;;;5074335;28;20020;-89
2021/06/14 00:30:41;;;;;;;13.35;7.13;;;17.20;99.90;;;;;;5075298;28;20025;-88
2021/06/14 00:33:08;;;;;;;11.52;7.10;;;17.10;99.90;;;;;;5074641;28;20025;-86
2021/06/14 00:35:34;;;;;;;10.40;6.88;;;17.10;99.90;;;;;;5074453;28;20486;-87
2021/06/14 00:38:00;;;;;;;10.45;7.10;;;17.10;99.90;;;;;;5074598;28;20418;-87
2021/06/14 00:40:26;;;;;;;14.02;7.78;;;16.90;99.90;;;;;;5074271;28;20021;-86
2021/06/14 00:42:52;;;;;;;8.93;7.15;;;16.80;99.90;;;;;;5075241;28;20024;-89
2021/06/14 00:45:29;;;;;;;12.98;6.90;;;16.80;99.90;;;;;;5074360;28;20020;-88
2021/06/14 00:47:55;;;;;;;11.23;7.35;;;16.90;99.90;;;;;;5074295;28;20029;-89
2021/06/14 00:50:32;;;;;;;13.90;7.25;;;16.90;99.90;;;;;;5075888;28;20500;-88
2021/06/14 00:52:57;;;;;;;9.60;7.25;;;16.80;99.90;;;;;;5075362;28;20094;-89
2021/06/14 00:55:23;;;;;;;14.20;8.25;;;16.70;99.90;;;;;;5073995;28;20468;-89
2021/06/14 00:57:49;;;;;;;11.05;7.78;;;16.70;99.90;;;;;;5074746;28;20456;-89
2021/06/14 01:00:15;;;;;;;12.70;8.45;;;16.70;99.90;;;;;;5073803;28;20028;-89
2021/06/14 01:02:41;;;;;;;11.80;7.85;;;16.70;99.90;;;;;;5073052;28;20024;-89
2021/06/14 01:05:09;;;;;;;12.68;8.30;;;16.70;99.90;;;;;;5074768;28;20429;-89
2021/06/14 01:07:36;;;;;;;11.45;7.97;;;16.70;99.90;;;;;;5073225;28;20027;-89
2021/06/14 01:10:04;;;;;;;15.57;8.00;;;16.60;99.90;;;;;;5073029;28;20036;-89
2021/06/14 01:12:35;;;;;;;13.75;8.65;;;16.50;99.90;;;;;;5073731;28;20708;-88
2021/06/14 01:15:09;;;;;;;10.45;8.13;;;16.50;99.90;;;;;;5075141;28;20024;-89
2021/06/14 01:17:47;;;;;;;15.82;8.88;;;16.70;99.90;;;;;;5073800;28;20028;-87
2021/06/14 01:20:35;;;;;;;12.07;8.00;;;16.70;99.90;;;;;;5074748;28;20123;-87
2021/06/14 01:23:19;;;;;;;17.25;8.52;;;16.60;99.90;;;;;;5087268;28;20088;-88
2021/06/14 01:25:55;;;;;;;14.38;8.38;;;16.60;99.90;;;;;;5093324;28;20044;-88
2021/06/14 01:28:22;;;;;;;11.35;8.63;;;16.60;99.90;;;;;;5092449;28;20025;-88
2021/06/14 01:30:51;;;;;;;14.07;8.35;;;16.60;99.90;;;;;;5093213;28;20036;-88
2021/06/14 01:33:20;;;;;;;16.17;9.10;;;16.70;99.90;;;;;;5094382;28;20028;-88
2021/06/14 01:35:58;;;;;;;13.43;8.65;;;16.70;99.90;;;;;;5076549;28;20020;-87
2021/06/14 01:38:28;;;;;;;12.93;8.88;;;16.70;99.90;;;;;;5073787;28;20025;-87
2021/06/14 01:41:00;;;;;;;12.15;8.82;;;16.60;99.90;;;;;;5073609;28;20071;-88
2021/06/14 01:43:29;;;;;;;14.00;8.98;;;16.50;99.90;;;;;;5073409;28;20115;-88
2021/06/14 01:45:59;;;;;;;15.98;9.70;;;16.50;99.90;;;;;;5073489;28;20115;-88
2021/06/14 01:48:25;;;;;;;14.70;9.43;;;16.60;99.90;;;;;;5073557;28;20021;-88
2021/06/14 01:50:52;;;;;;;14.25;9.48;;;16.60;99.90;;;;;;5074071;28;20046;-87
2021/06/14 01:53:18;;;;;;;19.75;10.13;;;16.60;99.90;;;;;;5076138;28;20435;-87
2021/06/14 01:55:45;;;;;;;15.90;9.35;;;16.60;99.90;;;;;;5073501;28;20037;-87
2021/06/14 01:58:12;;;;;;;16.35;8.57;;;16.70;99.90;;;;;;5074228;28;20055;-88
2021/06/14 02:00:42;;;;;;;13.52;8.90;;;16.40;99.90;;;;;;5073504;28;20028;-88
2021/06/14 02:03:10;;;;;;;11.48;8.70;;;16.20;99.90;;;;;;5073679;28;20086;-88
2021/06/14 02:05:37;;;;;;;17.20;10.30;;;16.10;99.90;;;;;;5073555;28;20032;-88
2021/06/14 02:08:04;;;;;;;18.55;10.02;;;16.10;99.90;;;;;;5073461;28;20024;-88
2021/06/14 02:10:30;;;;;;;15.75;10.43;;;16.10;99.90;;;;;;5074578;28;20029;-88
2021/06/14 02:12:56;;;;;;;14.65;9.85;;;16.20;99.90;;;;;;5074717;28;20005;-88
2021/06/14 02:15:23;;;;;;;16.13;9.98;;;16.10;99.90;;;;;;5072666;28;20491;-88
2021/06/14 02:17:50;;;;;;;16.63;9.68;;;16.00;99.90;;;;;;5073181;28;20031;-88
2021/06/14 02:20:17;;;;;;;15.20;9.70;;;16.00;99.90;;;;;;5073889;28;20028;-88
2021/06/14 02:22:43;;;;;;;17.05;10.35;;;16.00;99.90;;;;;;5077707;28;20017;-88
2021/06/14 02:25:11;;;;;;;16.45;9.82;;;16.00;99.90;;;;;;5080651;28;20045;-89
2021/06/14 02:27:38;;;;;;;14.38;9.32;;;16.00;99.90;;;;;;5080480;28;20366;-88
2021/06/14 02:30:12;;;;;;;15.50;10.25;;;16.00;99.90;;;;;;5079816;28;20119;-87
2021/06/14 02:32:38;;;;;;;15.25;9.27;;;16.10;99.90;;;;;;5077942;28;20024;-87
2021/06/14 02:35:07;;;;;;;13.73;9.65;;;16.00;99.90;;;;;;5077782;28;20082;-87
2021/06/14 02:37:36;;;;;;;16.60;10.07;;;16.00;99.90;;;;;;5077884;28;20021;-87
2021/06/14 02:40:05;;;;;;;13.48;9.70;;;16.00;99.90;;;;;;5077230;28;20425;-88
2021/06/14 02:42:31;;;;;;;15.07;9.98;;;16.00;99.90;;;;;;5076367;28;20020;-87
2021/06/14 02:44:57;;;;;;;12.77;9.40;;;16.00;99.90;;;;;;5076553;28;20031;-87
2021/06/14 02:47:23;;;;;;;15.93;9.77;;;16.00;99.90;;;;;;5077794;28;20471;-87
2021/06/14 02:49:50;;;;;;;16.02;9.63;;;16.00;99.90;;;;;;5076782;28;20057;-87
2021/06/14 02:52:16;;;;;;;15.38;9.00;;;16.10;99.90;;;;;;5076600;28;20481;-88
2021/06/14 02:54:57;;;;;;;13.55;8.93;;;16.00;99.90;;;;;;5076534;28;20020;-88
2021/06/14 02:57:25;;;;;;;17.25;8.88;;;15.90;99.90;;;;;;5076561;28;20043;-87
2021/06/14 02:59:53;;;;;;;15.85;8.82;;;15.90;99.90;;;;;;5076047;28;20029;-87
2021/06/14 03:02:26;;;;;;;14.13;9.55;;;15.80;99.90;;;;;;5076234;28;20047;-87
2021/06/14 03:04:52;;;;;;;15.63;8.73;;;15.80;99.90;;;;;;5076458;28;20070;-87
2021/06/14 03:07:25;;;;;;;22.30;9.98;;;15.60;99.90;;;;;;5075485;28;20016;-87
2021/06/14 03:09:52;;;;;;;17.83;9.90;;;15.70;99.90;;;;;;5076424;28;20031;-88
2021/06/14 03:12:19;;;;;;;14.48;8.95;;;15.70;99.90;;;;;;5076116;28;20025;-89
2021/06/14 03:14:46;;;;;;;18.88;9.48;;;15.70;99.90;;;;;;5078725;28;20066;-88
2021/06/14 03:17:13;;;;;;;18.92;9.32;;;15.50;99.90;;;;;;5076579;28;20481;-88
2021/06/14 03:19:40;;;;;;;16.27;9.20;;;15.40;99.90;;;;;;5075813;28;20758;-87
2021/06/14 03:22:09;;;;;;;19.30;8.77;;;15.40;99.90;;;;;;5078368;28;20388;-86
2021/06/14 03:24:35;;;;;;;13.57;8.35;;;15.30;99.90;;;;;;5077171;28;20024;-87
2021/06/14 03:27:02;;;;;;;13.10;9.15;;;15.50;99.90;;;;;;5075761;28;20040;-87
2021/06/14 03:29:29;;;;;;;17.58;9.10;;;15.60;99.90;;;;;;5061769;28;20050;-88
2021/06/14 03:31:56;;;;;;;16.70;9.68;;;15.60;99.90;;;;;;5076313;28;20020;-88
2021/06/14 03:34:24;;;;;;;17.42;10.20;;;15.50;99.90;;;;;;5075590;28;20428;-88
2021/06/14 03:36:50;;;;;;;13.95;9.60;;;15.50;99.90;;;;;;5075858;28;20059;-88
2021/06/14 03:39:17;;;;;;;12.65;8.75;;;15.20;99.90;;;;;;5075685;28;20032;-88
2021/06/14 03:41:51;;;;;;;13.57;9.07;;;15.00;99.90;;;;;;5075882;28;20111;-88
2021/06/14 03:44:18;;;;;;;14.23;9.52;;;14.90;99.90;;;;;;5075746;28;20033;-88
2021/06/14 03:46:45;;;;;;;21.65;9.32;;;14.90;99.90;;;;;;5075793;28;20024;-89
2021/06/14 03:49:11;;;;;;;16.52;8.90;;;14.90;99.90;;;;;;5076788;28;20031;-88
2021/06/14 03:51:36;;;;;;;14.32;8.25;;;14.80;99.90;;;;;;5076356;28;20021;-88
2021/06/14 03:54:03;;;;;;;13.32;8.43;;;14.90;99.90;;;;;;5074619;28;20031;-88
2021/06/14 03:56:31;;;;;;;15.48;9.40;;;14.90;99.90;;;;;;5075550;28;20031;-88
2021/06/14 03:58:58;;;;;;;15.82;9.00;;;14.90;99.90;;;;;;5074768;28;20025;-88
2021/06/14 04:01:25;;;;;;;14.52;9.80;;;14.80;99.90;;;;;;5075356;28;20098;-88
2021/06/14 04:06:26;;;;;;;16.80;9.95;;;14.80;99.90;;;;;;5076767;28;20082;-88
2021/06/14 04:08:52;;;;;;;16.30;9.70;;;14.80;99.90;;;;;;5075996;28;20017;-88
2021/06/14 04:11:18;;;;;;;16.73;9.68;;;14.90;99.90;;;;;;5076411;28;20099;-88
2021/06/14 04:13:46;;;;;;;15.88;10.40;;;15.00;99.90;;;;;;5075219;28;20389;-88
2021/06/14 04:16:12;;;;;;;14.15;9.50;;;15.10;99.90;;;;;;5074867;28;20021;-88
2021/06/14 04:18:37;;;;;;;15.85;9.65;;;15.20;99.90;;;;;;5075088;28;20028;-88
2021/06/14 04:21:04;;;;;;;17.80;10.18;;;15.20;99.90;;;;;;5075775;28;20025;-88
2021/06/14 04:23:30;;;;;;;18.88;10.25;;;15.10;99.90;;;;;;5074904;28;20016;-88
2021/06/14 04:25:56;;;;;;;16.90;10.18;;;15.10;99.90;;;;;;5076572;28;20052;-88
2021/06/14 04:28:21;;;;;;;16.48;10.05;;;15.10;99.90;;;;;;5075990;28;20489;-89
2021/06/14 04:30:47;;;;;;;15.57;9.32;;;15.20;99.90;;;;;;5074683;28;20091;-88
2021/06/14 04:33:13;;;;;;;14.43;9.32;;;15.20;99.90;;;;;;5074768;28;20025;-88
2021/06/14 04:35:39;;;;;;;17.40;9.20;;;15.30;99.90;;;;;;5074246;28;20019;-88
2021/06/14 04:38:04;;;;;;;17.83;9.15;;;15.40;99.90;;;;;;5074643;28;20120;-89
2021/06/14 04:40:30;;;;;;;14.40;9.88;;;15.50;99.90;;;;;;5074389;28;20031;-88
2021/06/14 04:42:56;;;;;;;22.42;10.15;;;15.70;99.90;;;;;;5074248;28;20020;-87
2021/06/14 04:45:23;;;;;;;23.27;10.75;;;15.70;99.90;;;;;;5075357;28;20146;-87
2021/06/14 04:47:49;;;;;;;20.08;10.45;;;15.80;99.90;;;;;;5074657;28;20477;-89
2021/06/14 04:50:16;;;;;;;22.05;10.30;;;15.90;99.90;;;;;;5075427;28;20044;-86
2021/06/14 04:52:42;;;;;;;15.18;9.82;;;16.00;99.90;;;;;;5074295;28;20054;-89
2021/06/14 04:55:08;;;;;;;18.25;10.02;;;16.10;99.90;;;;;;5075832;28;20115;-88
2021/06/14 04:57:34;;;;;;;22.10;10.63;;;16.20;99.90;;;;;;5075658;28;20392;-88
2021/06/14 05:00:00;;;;;;;22.35;10.55;;;16.30;99.90;;;;;;5075277;28;20032;-88
2021/06/14 05:02:25;;;;;;;13.77;8.93;;;16.40;99.90;;;;;;5075520;28;20089;-81
2021/06/14 05:04:51;;;;;;;18.90;10.05;;;16.50;99.90;;;;;;5076872;28;20115;-80
2021/06/14 05:07:17;;;;;;;14.25;9.35;;;16.60;99.90;;;;;;5078143;28;20020;-80
2021/06/14 05:09:42;;;;;;;20.98;10.18;;;16.60;99.90;;;;;;5076642;28;20504;-80
2021/06/14 05:12:09;;;;;;;15.65;10.05;;;16.70;99.90;;;;;;5077952;28;20036;-80
2021/06/14 05:14:34;;;;;;;17.85;10.20;;;16.80;99.90;;;;;;5076494;28;20054;-79
2021/06/14 05:17:00;;;;;;;13.43;8.85;;;16.90;99.90;;;;;;5076447;28;20028;-79
2021/06/14 05:19:26;;;;;;;30.77;10.70;;;16.90;99.90;;;;;;5077820;28;20024;-80
2021/06/14 05:21:51;;;;;;;12.55;8.52;;;17.10;99.90;;;;;;5076678;28;20028;-79
2021/06/14 05:24:17;;;;;;;11.60;7.25;;;17.10;99.90;;;;;;5076355;28;20016;-79
2021/06/14 05:26:43;;;;;;;13.48;7.50;;;17.20;99.90;;;;;;5076367;28;20043;-79
2021/06/14 05:29:09;;;;;;;15.90;7.88;;;17.30;99.90;;;;;;5076473;28;20388;-78
2021/06/14 05:31:34;;;;;;;14.68;8.10;;;17.30;99.90;;;;;;5077838;28;20104;-79
2021/06/14 05:34:00;;;;;;;17.98;7.63;;;17.20;99.90;;;;;;5075635;28;20097;-80
2021/06/14 05:36:26;;;;;;;12.45;7.30;;;17.10;99.90;;;;;;5069510;28;20027;-80
2021/06/14 05:38:51;;;;;;;12.07;7.20;;;17.00;99.90;;;;;;5057201;28;20505;-80
2021/06/14 05:41:17;;;;;;;16.63;7.40;;;17.00;99.90;;;;;;5067101;28;20116;-81
2021/06/14 05:43:42;;;;;;;14.57;8.32;;;17.00;99.90;;;;;;5055880;28;20025;-80
2021/06/14 05:46:08;;;;;;;14.65;7.78;;;17.10;99.90;;;;;;5071099;28;20059;-81
2021/06/14 05:48:34;;;;;;;13.75;8.02;;;17.20;99.90;;;;;;5074671;28;20024;-81
2021/06/14 05:50:59;;;;;;;14.60;8.15;;;17.20;99.90;;;;;;5075381;28;20377;-79
2021/06/14 05:53:25;;;;;;;12.02;7.88;;;17.20;99.90;;;;;;5068800;28;20047;-79
2021/06/14 05:55:51;;;;;;;14.95;7.38;;;17.20;99.90;;;;;;5084097;28;20528;-80
2021/06/14 05:58:17;;;;;;;13.90;8.77;;;17.30;99.90;;;;;;5074753;28;20032;-80
2021/06/14 06:00:43;;;;;;;16.70;9.02;;;17.40;99.90;;;;;;5071699;28;20058;-80
2021/06/14 06:03:10;;;;;;;14.70;8.18;;;17.50;99.90;;;;;;5072404;28;20025;-81
2021/06/14 06:05:36;;;;;;;16.55;7.80;;;17.60;99.90;;;;;;5055685;28;20052;-81
2021/06/14 06:08:02;;;;;;;16.73;8.50;;;17.70;99.90;;;;;;5064360;28;20025;-80
2021/06/14 06:10:28;;;;;;;17.83;7.80;;;17.90;99.90;;;;;;5072521;28;20035;-82
2021/06/14 06:12:54;;;;;;;14.57;7.57;;;18.00;99.90;;;;;;5063202;28;20044;-81
2021/06/14 06:15:20;;;;;;;14.25;7.70;;;18.30;99.90;;;;;;5067423;28;20037;-82
2021/06/14 06:17:47;;;;;;;11.82;6.90;;;18.50;99.90;;;;;;5054384;28;20033;-81
2021/06/14 06:20:15;;;;;;;14.82;7.65;;;18.60;99.90;;;;;;5060485;28;20044;-82
2021/06/14 06:22:43;;;;;;;11.45;6.57;;;18.70;99.90;;;;;;5067641;28;20132;-82
2021/06/14 06:25:21;;;;;;;10.30;6.50;;;18.80;99.90;;;;;;5055548;28;20136;-82
2021/06/14 06:27:47;;;;;;;11.63;6.57;;;18.80;99.90;;;;;;5067214;28;20028;-81
2021/06/14 06:30:15;;;;;;;10.10;6.22;;;18.90;99.90;;;;;;5069354;28;20020;-82
2021/06/14 06:32:41;;;;;;;13.60;6.57;;;19.00;99.90;;;;;;5067304;28;20033;-88
2021/06/14 06:35:09;;;;;;;10.27;6.55;;;19.00;99.90;;;;;;5057163;28;20109;-89
2021/06/14 06:37:38;;;;;;;15.13;7.45;;;19.20;99.90;;;;;;5054183;28;20051;-90
2021/06/14 06:40:07;;;;;;;10.05;6.25;;;19.90;99.90;;;;;;5065503;28;20826;-89
2021/06/14 06:42:33;;;;;;;10.45;6.28;;;21.50;99.90;;;;;;5060090;28;20021;-87
2021/06/14 06:44:58;;;;;;;11.98;5.90;;;22.40;99.90;;;;;;5061361;28;20721;-89
2021/06/14 06:47:36;;;;;;;10.43;5.63;;;22.70;99.70;;;;;;5070176;28;20021;-89
2021/06/14 06:50:03;;;;;;;12.02;6.20;;;23.00;98.90;;;;;;5067881;28;20680;-90
2021/06/14 06:52:29;;;;;;;8.48;5.25;;;23.60;96.80;;;;;;5069105;28;20035;-90
2021/06/14 06:54:55;;;;;;;10.40;5.32;;;23.40;96.80;;;;;;5067969;28;20420;-85
2021/06/14 06:57:21;;;;;;;11.48;5.10;;;23.70;95.50;;;;;;5070761;28;20835;-88
2021/06/14 06:59:47;;;;;;;8.57;4.70;;;24.20;93.50;;;;;;5065205;28;20063;-89
2021/06/14 07:02:13;;;;;;;8.55;5.00;;;24.10;92.80;;;;;;5069924;28;20016;-89
2021/06/14 07:04:39;;;;;;;11.73;5.32;;;24.00;92.70;;;;;;5072959;28;20016;-84
2021/06/14 07:07:06;;;;;;;7.97;4.90;;;24.20;92.90;;;;;;5072367;28;20338;-89
2021/06/14 07:09:32;;;;;;;10.43;4.55;;;25.30;90.20;;;;;;5069810;28;20691;-89
2021/06/14 07:11:57;;;;;;;7.57;4.60;;;26.20;86.20;;;;;;5064787;28;20064;-89
2021/06/14 07:14:24;;;;;;;6.90;4.78;;;26.30;84.50;;;;;;5076879;28;20035;-89
2021/06/14 07:16:50;;;;;;;7.10;4.25;;;26.30;82.70;;;;;;5062704;28;20025;-89
2021/06/14 07:19:16;;;;;;;9.15;4.55;;;26.50;79.70;;;;;;5066685;28;20485;-88
2021/06/14 07:21:41;;;;;;;7.13;4.40;;;26.10;80.80;;;;;;5072578;28;20031;-89
2021/06/14 07:24:07;;;;;;;9.63;4.90;;;26.30;80.40;;;;;;5065684;28;20165;-89
2021/06/14 07:26:34;;;;;;;6.53;4.10;;;26.00;80.50;;;;;;5073723;28;20064;-89
2021/06/14 07:29:00;;;;;;;10.48;4.10;;;27.10;77.80;;;;;;5073607;28;20082;-89
2021/06/14 07:31:26;;;;;;;9.32;3.95;;;27.20;78.10;;;;;;5075665;28;20452;-80
2021/06/14 07:33:52;;;;;;;10.98;4.57;;;26.80;76.20;;;;;;5063106;28;20056;-80
2021/06/14 07:36:18;;;;;;;11.10;3.72;;;26.40;76.00;;;;;;5065128;28;20108;-79
2021/06/14 07:38:44;;;;;;;9.15;4.05;;;26.10;76.60;;;;;;5067787;28;20560;-79
2021/06/14 07:41:10;;;;;;;11.63;4.22;;;26.30;77.40;;;;;;5072111;28;20048;-80
2021/06/14 07:43:36;;;;;;;9.25;3.65;;;26.60;77.50;;;;;;5069756;28;20107;-80
2021/06/14 07:46:02;;;;;;;14.85;4.13;;;27.50;71.40;;;;;;5065047;28;20024;-79
2021/06/14 07:48:28;;;;;;;11.90;3.22;;;27.40;71.20;;;;;;5061466;28;20052;-81
2021/06/14 07:50:55;;;;;;;14.57;3.35;;;26.90;71.00;;;;;;5072806;28;20056;-81
2021/06/14 07:53:21;;;;;;;13.90;3.90;;;27.10;70.10;;;;;;5060285;28;20114;-80
2021/06/14 07:55:48;;;;;;;11.57;3.45;;;27.00;70.70;;;;;;5070208;28;20052;-81
2021/06/14 07:58:14;;;;;;;17.65;3.67;;;27.30;70.10;;;;;;5073525;28;20024;-81
2021/06/14 08:00:41;;;;;;;16.05;4.05;;;28.20;69.20;;;;;;5072145;28;20077;-78
2021/06/14 08:03:07;;;;;;;8.43;3.70;;;29.10;65.30;;;;;;5066671;28;20017;-79
2021/06/14 08:05:33;;;;;;;11.63;4.35;;;29.60;63.60;;;;;;5071271;28;20024;-79
2021/06/14 08:07:59;;;;;;;10.02;3.53;;;28.50;65.00;;;;;;5073714;28;20028;-80
2021/06/14 08:10:24;;;;;;;15.48;3.60;;;28.20;63.20;;;;;;5071135;28;20432;-80
2021/06/14 08:12:51;;;;;;;7.80;3.53;;;27.90;64.00;;;;;;5067550;28;20044;-81
2021/06/14 08:15:18;;;;;;;7.53;3.63;;;28.40;61.90;;;;;;5069011;28;20088;-81
2021/06/14 08:17:44;;;;;;;8.77;2.85;;;28.30;61.70;;;;;;5069929;28;20794;-81
2021/06/14 08:20:17;;;;;;;11.85;3.38;;;27.70;64.10;;;;;;5069733;28;20086;-83
2021/06/14 08:25:27;;;;;;;11.15;4.10;;;27.10;66.20;;;;;;5072060;28;20043;-80
2021/06/14 08:27:53;;;;;;;14.00;4.05;;;27.10;66.10;;;;;;5074491;28;20028;-82
2021/06/14 08:30:23;;;;;;;7.72;3.80;;;27.30;68.50;;;;;;5072517;28;20028;-87
2021/06/14 08:32:50;;;;;;;8.00;3.70;;;28.10;64.50;;;;;;5066467;28;20028;-86
2021/06/14 08:35:19;;;;;;;11.05;3.53;;;27.90;62.30;;;;;;5061975;28;20028;-87
2021/06/14 08:37:47;;;;;;;10.57;3.13;;;28.40;62.80;;;;;;5056617;28;20040;-87
2021/06/14 08:40:15;;;;;;;10.75;3.88;;;28.80;61.10;;;;;;5049589;28;20186;-86
2021/06/14 08:42:42;;;;;;;7.63;2.85;;;27.90;62.70;;;;;;5074119;28;20081;-87
2021/06/14 08:45:10;;;;;;;9.00;2.92;;;27.70;62.90;;;;;;5090141;28;20021;-85
2021/06/14 08:47:39;;;;;;;7.13;2.88;;;28.10;63.70;;;;;;5091062;28;20021;-86
2021/06/14 08:50:08;;;;;;;7.00;3.10;;;27.70;63.40;;;;;;5081976;28;20025;-86
2021/06/14 08:52:34;;;;;;;9.43;2.85;;;27.90;62.40;;;;;;5086432;28;20024;-86
2021/06/14 08:55:00;;;;;;;7.88;2.75;;;27.50;62.70;;;;;;5081986;28;20025;-87
2021/06/14 08:57:26;;;;;;;5.95;2.70;;;27.80;61.70;;;;;;5057700;28;20090;-85
2021/06/14 08:59:52;;;;;;;3.50;2.45;;;28.10;61.00;;;;;;5053713;28;20066;-86
2021/06/14 09:02:18;;;;;;;7.65;3.15;;;28.30;60.00;;;;;;5063408;28;20591;-85
2021/06/14 09:04:44;;;;;;;6.07;2.67;;;28.30;60.40;;;;;;5067024;28;20051;-85
2021/06/14 09:07:09;;;;;;;7.47;3.00;;;28.00;60.00;;;;;;5074518;28;20028;-81
2021/06/14 09:09:35;;;;;;;9.60;2.90;;;28.20;59.70;;;;;;5074983;28;20028;-80
2021/06/14 09:12:02;;;;;;;8.43;2.78;;;29.00;59.60;;;;;;5066498;28;20035;-81
2021/06/14 09:14:35;;;;;;;9.20;2.58;;;29.70;56.70;;;;;;5072825;28;20031;-80
2021/06/14 09:17:13;;;;;;;5.93;2.45;;;30.10;56.40;;;;;;5073897;28;20078;-80
2021/06/14 09:19:42;;;;;;;5.07;2.20;;;29.50;55.90;;;;;;5072808;28;20390;-80
2021/06/14 09:22:26;;;;;;;5.88;2.42;;;29.00;53.30;;;;;;5068192;28;20508;-82
2021/06/14 09:25:04;;;;;;;7.40;2.55;;;29.50;55.30;;;;;;5070005;28;20066;-82
2021/06/14 09:27:41;;;;;;;4.75;2.40;;;30.00;52.50;;;;;;5067195;28;20040;-83
2021/06/14 09:30:14;;;;;;;7.00;2.15;;;29.80;51.50;;;;;;5070841;28;20385;-82
2021/06/14 09:33:02;;;;;;;4.53;2.10;;;29.70;52.00;;;;;;5065597;28;20167;-83
2021/06/14 09:35:31;;;;;;;7.35;2.22;;;29.90;51.20;;;;;;5066902;28;20040;-82
2021/06/14 09:38:13;;;;;;;37.90;3.85;;;29.20;52.50;;;;;;5073848;28;20059;-82
2021/06/14 09:40:44;;;;;;;5.73;2.40;;;29.30;54.20;;;;;;5068413;28;20025;-83
2021/06/14 09:43:23;;;;;;;6.95;2.28;;;29.20;54.20;;;;;;5069757;28;20036;-83
2021/06/14 09:45:49;;;;;;;17.63;3.45;;;29.00;53.10;;;;;;5063301;28;20118;-83
2021/06/14 09:48:19;;;;;;;7.72;2.20;;;28.60;53.70;;;;;;5067691;28;20032;-82
2021/06/14 09:50:47;;;;;;;7.30;2.63;;;29.00;53.60;;;;;;5069860;28;20798;-82
2021/06/14 09:53:20;;;;;;;4.72;2.20;;;29.30;53.10;;;;;;5064305;28;20112;-81
2021/06/14 09:55:47;;;;;;;219.18;15.05;;;29.90;53.60;;;;;;5060929;28;20029;-82
2021/06/14 09:58:22;;;;;;;6.90;2.45;;;29.70;51.00;;;;;;5061720;28;20021;-82
2021/06/14 10:00:56;;;;;;;7.85;3.20;;;29.40;52.50;;;;;;5070838;28;20032;-82
2021/06/14 10:03:25;;;;;;;7.38;2.63;;;29.90;51.40;;;;;;5072009;28;20013;-82
2021/06/14 10:05:53;;;;;;;7.53;2.60;;;30.50;51.40;;;;;;5059984;28;20753;-82
2021/06/14 10:08:29;;;;;;;4.90;2.47;;;31.30;50.50;;;;;;5051422;28;20501;-81
2021/06/14 10:11:09;;;;;;;13.20;2.67;;;32.30;48.70;;;;;;5072729;28;20493;-82
2021/06/14 10:13:40;;;;;;;4.32;2.50;;;32.10;49.30;;;;;;5067504;28;20032;-82
2021/06/14 10:16:14;;;;;;;2.92;2.17;;;31.70;49.20;;;;;;5066012;28;20029;-81
2021/06/14 10:18:43;;;;;;;3.53;2.30;;;31.60;49.30;;;;;;5065176;28;20059;-81
2021/06/14 10:21:24;;;;;;;5.07;2.42;;;32.20;48.40;;;;;;5079893;28;20460;-82
2021/06/14 10:23:55;;;;;;;5.95;2.70;;;31.50;48.50;;;;;;5071994;28;20029;-82
2021/06/14 10:26:22;;;;;;;4.97;2.90;;;30.90;51.30;;;;;;5059390;28;20098;-82
2021/06/14 10:28:49;;;;;;;12.00;3.25;;;30.70;51.30;;;;;;5056641;28;20025;-81
2021/06/14 10:31:15;;;;;;;8.95;2.80;;;31.00;51.10;;;;;;5059489;28;20032;-81
2021/06/14 10:33:44;;;;;;;10.98;2.70;;;30.90;50.00;;;;;;5062752;28;20033;-81
2021/06/14 10:36:11;;;;;;;9.85;2.83;;;30.60;50.80;;;;;;5053841;28;20875;-81
2021/06/14 10:38:43;;;;;;;6.18;3.03;;;30.70;51.90;;;;;;5056620;28;20029;-81
2021/06/14 10:41:10;;;;;;;10.85;2.83;;;31.10;50.50;;;;;;5058813;28;20064;-81
2021/06/14 10:43:38;;;;;;;4.90;2.70;;;31.80;50.60;;;;;;5070890;28;20024;-81
2021/06/14 10:46:04;;;;;;;9.02;2.55;;;32.20;47.90;;;;;;5070043;28;20032;-80
2021/06/14 10:48:33;;;;;;;8.02;2.80;;;32.30;49.80;;;;;;5063983;28;20523;-81
2021/06/14 10:51:01;;;;;;;5.75;2.60;;;33.30;47.10;;;;;;5070276;28;20067;-80
2021/06/14 10:53:29;;;;;;;11.07;2.83;;;33.50;46.70;;;;;;5070649;28;20037;-81
2021/06/14 10:55:57;;;;;;;5.43;2.60;;;33.00;47.50;;;;;;5075101;28;20028;-83
2021/06/14 10:58:23;;;;;;;4.57;2.28;;;32.60;47.90;;;;;;5072333;28;20029;-83
2021/06/14 11:01:07;;;;;;;7.40;2.47;;;32.70;46.80;;;;;;5070799;28;20125;-79
2021/06/14 11:03:42;;;;;;;5.75;2.40;;;32.40;46.50;;;;;;5076818;28;20021;-82
2021/06/14 11:06:25;;;;;;;7.85;2.47;;;32.50;46.50;;;;;;5073512;28;20036;-80
2021/06/14 11:09:04;;;;;;;8.73;2.28;;;33.20;45.60;;;;;;5076366;28;20032;-82
2021/06/14 11:11:31;;;;;;;3.75;2.50;;;34.10;44.80;;;;;;5074517;28;20082;-81
2021/06/14 11:13:57;;;;;;;4.88;2.25;;;33.90;43.20;;;;;;5062066;28;20039;-81
2021/06/14 11:16:34;;;;;;;4.75;2.20;;;33.60;43.60;;;;;;5073475;28;20054;-81
2021/06/14 11:19:05;;;;;;;5.78;2.17;;;32.80;44.50;;;;;;5063449;28;20142;-81
2021/06/14 11:21:31;;;;;;;27.03;3.50;;;32.60;46.10;;;;;;5077767;28;20056;-81
2021/06/14 11:24:06;;;;;;;5.57;2.17;;;33.40;44.00;;;;;;5065677;28;20077;-82
2021/06/14 11:26:31;;;;;;;4.18;2.15;;;33.60;44.10;;;;;;5073176;28;20063;-82
2021/06/14 11:28:59;;;;;;;5.45;2.38;;;32.90;43.40;;;;;;5073639;28;20108;-82
2021/06/14 11:31:30;;;;;;;7.40;2.50;;;31.70;45.90;;;;;;5067370;28;20029;-82
2021/06/14 11:34:06;;;;;;;8.10;3.00;;;33.60;44.00;;;;;;5074739;28;20045;-81
2021/06/14 11:36:33;;;;;;;4.95;2.50;;;33.60;44.40;;;;;;5067740;28;20032;-83
2021/06/14 11:39:12;;;;;;;3.63;2.25;;;33.90;43.40;;;;;;5074014;28;20039;-81
2021/06/14 11:41:38;;;;;;;9.43;2.70;;;33.70;44.90;;;;;;5068710;28;20593;-84
2021/06/14 11:44:29;;;;;;;7.22;1.92;;;34.60;42.00;;;;;;5067415;28;20526;-82
2021/06/14 11:47:15;;;;;;;11.53;2.60;;;35.20;41.60;;;;;;5063041;28;20438;-81
2021/06/14 11:49:41;;;;;;;4.53;2.22;;;35.40;41.60;;;;;;5060117;28;20036;-81
2021/06/14 11:52:17;;;;;;;3.50;2.13;;;36.00;39.90;;;;;;5070982;28;20047;-81
2021/06/14 11:54:43;;;;;;;4.80;2.28;;;34.10;41.80;;;;;;5065705;28;20035;-81
2021/06/14 11:57:09;;;;;;;3.13;2.53;;;33.40;42.70;;;;;;5058934;28;20413;-82
2021/06/14 11:59:36;;;;;;;6.75;2.17;;;33.80;43.80;;;;;;5067048;28;20477;-81
2021/06/14 12:02:17;;;;;;;5.28;2.42;;;33.20;43.80;;;;;;5067668;28;20021;-81
2021/06/14 12:04:43;;;;;;;6.45;2.20;;;32.60;44.40;;;;;;5067588;28;20025;-81
2021/06/14 12:07:09;;;;;;;3.72;2.05;;;32.10;45.10;;;;;;5068184;28;20121;-82
2021/06/14 12:09:40;;;;;;;7.53;2.67;;;32.00;44.70;;;;;;5068551;28;20845;-81
2021/06/14 12:12:06;;;;;;;7.85;2.28;;;32.00;43.60;;;;;;5071657;28;20044;-82
2021/06/14 12:14:33;;;;;;;3.42;2.17;;;32.40;45.20;;;;;;5069290;28;20031;-83
2021/06/14 12:17:01;;;;;;;5.53;2.33;;;32.10;44.40;;;;;;5061466;28;20079;-82
2021/06/14 12:19:29;;;;;;;2.70;2.05;;;31.80;45.20;;;;;;5069044;28;20021;-83
2021/06/14 12:21:57;;;;;;;3.65;2.22;;;31.80;45.40;;;;;;5071180;28;20009;-83
2021/06/14 12:24:24;;;;;;;3.85;2.40;;;31.60;45.70;;;;;;5064368;28;20033;-83
2021/06/14 12:26:50;;;;;;;6.85;2.55;;;31.90;45.20;;;;;;5056821;28;20108;-83
2021/06/14 12:29:19;;;;;;;6.43;2.55;;;31.50;45.30;;;;;;5068321;28;20423;-82
2021/06/14 12:31:45;;;;;;;5.32;2.50;;;31.90;45.50;;;;;;5069289;28;20037;-83
2021/06/14 12:34:11;;;;;;;5.85;2.17;;;31.60;45.40;;;;;;5059652;28;20024;-83
2021/06/14 12:36:37;;;;;;;9.95;2.72;;;31.50;45.60;;;;;;5063516;28;20070;-83
2021/06/14 12:39:03;;;;;;;7.97;2.40;;;32.10;45.90;;;;;;5060335;28;20616;-83
2021/06/14 12:41:29;;;;;;;4.28;2.50;;;34.10;43.50;;;;;;5066227;28;20742;-83
2021/06/14 12:43:57;;;;;;;7.45;2.30;;;33.60;43.90;;;;;;5074393;28;20056;-83
2021/06/14 12:46:36;;;;;;;5.55;2.20;;;33.30;43.10;;;;;;5074523;28;20362;-84
2021/06/14 12:49:02;;;;;;;10.48;2.78;;;33.30;43.00;;;;;;5072093;28;20025;-84
2021/06/14 12:51:33;;;;;;;6.35;2.70;;;33.70;44.20;;;;;;5075379;28;20039;-84